createdAt,value
2022-10-08T00:01:43.530Z,96070.72
2022-10-08T00:04:12.266Z,96078.22
2022-10-08T00:06:40.649Z,96076.88
2022-10-08T00:09:08.838Z,96075.28
2022-10-08T00:11:37.943Z,96076.34
2022-10-08T00:14:07.665Z,96073.09
2022-10-08T00:16:36.700Z,96067.72
2022-10-08T00:19:06.085Z,96067.97
2022-10-08T00:21:35.574Z,96061.22
2022-10-08T00:24:04.631Z,96064.69
2022-10-08T00:26:34.032Z,96066.31
2022-10-08T00:29:02.973Z,96066.31
2022-10-08T00:31:33.592Z,96060.59
2022-10-08T00:34:02.658Z,96062.50
2022-10-08T00:36:32.187Z,96057.44
2022-10-08T00:39:00.685Z,96056.63
2022-10-08T00:41:29.771Z,96052.56
2022-10-08T00:43:59.036Z,96047.97
2022-10-08T00:46:29.126Z,96053.63
2022-10-08T00:49:01.803Z,96051.19
2022-10-08T00:51:30.031Z,96047.72
2022-10-08T00:53:58.103Z,96040.44
2022-10-08T00:56:26.326Z,96037.75
2022-10-08T00:58:54.447Z,96037.75
2022-10-08T01:01:23.104Z,96038.31
2022-10-08T01:03:51.223Z,96032.94
2022-10-08T01:06:28.943Z,96020.31
2022-10-08T01:09:00.877Z,96018.44
2022-10-08T01:11:38.180Z,96013.06
2022-10-08T01:14:08.598Z,96013.84
2022-10-08T01:16:40.512Z,96013.31
2022-10-08T01:19:17.267Z,96017.63
2022-10-08T01:21:48.946Z,96002.31
2022-10-08T01:24:47.560Z,96003.16
2022-10-08T01:27:22.640Z,96004.78
2022-10-08T01:29:50.781Z,96000.19
2022-10-08T01:32:20.490Z,96002.09
2022-10-08T01:34:49.249Z,95997.25
2022-10-08T01:37:19.841Z,95994.63
2022-10-08T01:39:48.078Z,95997.00
2022-10-08T01:42:16.446Z,95998.13
2022-10-08T01:44:46.465Z,95997.31
2022-10-08T01:47:16.764Z,95998.38
2022-10-08T01:49:46.578Z,95998.66
2022-10-08T01:52:18.851Z,95989.31
2022-10-08T01:54:46.943Z,95989.53
2022-10-08T01:57:15.016Z,95991.44
2022-10-08T01:59:45.705Z,95999.00
2022-10-08T02:02:17.063Z,95990.94
2022-10-08T02:04:45.128Z,95997.69
2022-10-08T02:07:15.747Z,95992.88
2022-10-08T02:09:44.923Z,95989.66
2022-10-08T02:12:12.995Z,95988.06
2022-10-08T02:14:42.727Z,95982.72
2022-10-08T02:17:21.269Z,95980.88
2022-10-08T02:19:53.045Z,95977.69
2022-10-08T02:22:23.146Z,95989.75
2022-10-08T02:24:53.257Z,95987.59
2022-10-08T02:27:25.851Z,95985.44
2022-10-08T02:29:59.684Z,95971.75
2022-10-08T02:32:32.567Z,95974.44
2022-10-08T02:35:03.202Z,95972.00
2022-10-08T02:37:34.394Z,95973.34
2022-10-08T02:40:04.404Z,95965.25
2022-10-08T02:42:32.682Z,95973.03
2022-10-08T02:45:01.959Z,95979.47
2022-10-08T02:47:32.605Z,95979.75
2022-10-08T02:50:02.712Z,95983.81
2022-10-08T02:52:35.371Z,95988.66
2022-10-08T02:55:03.466Z,95984.63
2022-10-08T02:57:33.589Z,95979.00
2022-10-08T03:00:01.677Z,95984.34
2022-10-08T03:02:36.923Z,95989.19
2022-10-08T03:05:06.436Z,95992.66
2022-10-08T03:07:35.678Z,95982.47
2022-10-08T03:10:05.524Z,95991.63
2022-10-08T03:12:33.615Z,95997.25
2022-10-08T03:15:01.716Z,95991.28
2022-10-08T03:17:33.099Z,95994.22
2022-10-08T03:20:03.222Z,96006.31
2022-10-08T03:22:31.505Z,96015.66
2022-10-08T03:24:59.618Z,96010.59
2022-10-08T03:27:27.692Z,96007.34
2022-10-08T03:29:58.014Z,96007.34
2022-10-08T03:32:26.126Z,96009.81
2022-10-08T03:34:55.598Z,96006.31
2022-10-08T03:37:23.741Z,96009.00
2022-10-08T03:39:51.870Z,96007.41
2022-10-08T03:42:20.130Z,96006.09
2022-10-08T03:44:48.203Z,96014.16
2022-10-08T03:47:16.237Z,96011.97
2022-10-08T03:49:44.362Z,96013.31
2022-10-08T03:52:13.821Z,96005.50
2022-10-08T03:54:42.170Z,96010.31
2022-10-08T03:57:10.226Z,96007.06
2022-10-08T03:59:38.269Z,96008.94
2022-10-08T04:02:06.606Z,96002.50
2022-10-08T04:04:34.822Z,95999.53
2022-10-08T04:07:02.915Z,95990.13
2022-10-08T04:09:32.616Z,95999.50
2022-10-08T04:12:00.695Z,95987.13
2022-10-08T04:14:28.807Z,95997.38
2022-10-08T04:16:56.885Z,95993.31
2022-10-08T04:19:25.011Z,95989.81
2022-10-08T04:21:53.101Z,95997.94
2022-10-08T04:24:21.441Z,95996.59
2022-10-08T04:26:50.982Z,96001.44
2022-10-08T04:29:19.141Z,96000.63
2022-10-08T04:31:47.179Z,96009.75
2022-10-08T04:34:15.219Z,96008.13
2022-10-08T04:36:43.261Z,96018.06
2022-10-08T04:39:11.701Z,96021.03
2022-10-08T04:41:39.764Z,96012.16
2022-10-08T04:44:09.214Z,96003.84
2022-10-08T04:46:37.288Z,96003.56
2022-10-08T04:49:05.358Z,95998.47
2022-10-08T04:51:33.710Z,95994.19
2022-10-08T04:54:01.810Z,96004.94
2022-10-08T04:56:30.916Z,96007.38
2022-10-08T04:58:59.223Z,96023.50
2022-10-08T05:01:29.035Z,96016.75
2022-10-08T05:03:58.400Z,96024.81
2022-10-08T05:06:28.231Z,96024.81
2022-10-08T05:08:56.378Z,96020.53
2022-10-08T05:11:24.921Z,96022.13
2022-10-08T05:13:53.370Z,96022.13
2022-10-08T05:16:21.754Z,96035.03
2022-10-08T05:18:52.183Z,96033.44
2022-10-08T05:21:21.181Z,96027.53
2022-10-08T05:23:49.514Z,96028.88
2022-10-08T05:26:18.681Z,96022.97
2022-10-08T05:28:48.403Z,96022.72
2022-10-08T05:31:16.730Z,96024.09
2022-10-08T05:33:45.102Z,96022.47
2022-10-08T05:36:16.932Z,96031.34
2022-10-08T05:38:45.025Z,96027.03
2022-10-08T05:41:14.041Z,96028.13
2022-10-08T05:43:42.135Z,96030.81
2022-10-08T05:46:10.706Z,96039.94
2022-10-08T05:48:38.843Z,96035.38
2022-10-08T05:51:07.793Z,96040.75
2022-10-08T05:53:37.798Z,96048.00
2022-10-08T05:56:06.905Z,96044.50
2022-10-08T05:58:35.321Z,96048.00
2022-10-08T06:01:04.406Z,96056.31
2022-10-08T06:03:32.593Z,96055.25
2022-10-08T06:06:02.908Z,96052.56
2022-10-08T06:08:30.977Z,96053.63
2022-10-08T06:11:00.498Z,96067.59
2022-10-08T06:13:28.999Z,96070.81
2022-10-08T06:15:57.379Z,96073.78
2022-10-08T06:18:25.571Z,96071.09
2022-10-08T06:20:53.683Z,96081.03
2022-10-08T06:23:21.842Z,96078.66
2022-10-08T06:25:49.890Z,96078.91
2022-10-08T06:28:19.679Z,96085.09
2022-10-08T06:30:47.759Z,96086.44
2022-10-08T06:33:16.947Z,96087.78
2022-10-08T06:35:45.022Z,96089.94
2022-10-08T06:38:13.496Z,96096.91
2022-10-08T06:40:41.833Z,96099.59
2022-10-08T06:43:12.090Z,96093.41
2022-10-08T06:45:41.639Z,96100.97
2022-10-08T06:48:09.844Z,96093.16
2022-10-08T06:50:38.117Z,96091.28
2022-10-08T06:53:06.467Z,96088.03
2022-10-08T06:55:34.619Z,96090.97
2022-10-08T06:58:02.774Z,96088.53
2022-10-08T07:00:30.887Z,96087.19
2022-10-08T07:03:00.405Z,96103.00
2022-10-08T07:05:28.494Z,96097.63
2022-10-08T07:07:56.524Z,96096.75
2022-10-08T07:10:27.546Z,96096.13
2022-10-08T07:12:57.891Z,96102.50
2022-10-08T07:15:25.987Z,96101.59
2022-10-08T07:17:54.037Z,96109.53
2022-10-08T07:20:23.547Z,96104.56
2022-10-08T07:22:51.893Z,96103.19
2022-10-08T07:25:19.966Z,96102.03
2022-10-08T07:27:48.104Z,96099.81
2022-10-08T07:30:16.215Z,96088.97
2022-10-08T07:32:44.529Z,96119.34
2022-10-08T07:35:13.036Z,96120.97
2022-10-08T07:37:44.364Z,96119.59
2022-10-08T07:40:12.574Z,96117.72
2022-10-08T07:42:40.638Z,96120.25
2022-10-08T07:45:09.715Z,96122.66
2022-10-08T07:47:37.755Z,96122.66
2022-10-08T07:50:06.717Z,96129.06
2022-10-08T07:52:34.785Z,96118.81
2022-10-08T07:55:04.348Z,96122.03
2022-10-08T07:57:32.401Z,96111.78
2022-10-08T08:00:00.490Z,96112.31
2022-10-08T08:02:28.896Z,96113.31
2022-10-08T08:04:57.042Z,96112.72
2022-10-08T08:07:25.121Z,96126.50
2022-10-08T08:09:53.253Z,96120.81
2022-10-08T08:12:22.688Z,96120.00
2022-10-08T08:14:50.741Z,96130.28
2022-10-08T08:17:19.070Z,96132.38
2022-10-08T08:19:47.109Z,96141.22
2022-10-08T08:22:15.209Z,96138.47
2022-10-08T08:24:43.245Z,96148.94
2022-10-08T08:27:11.320Z,96145.81
2022-10-08T08:29:41.234Z,96149.81
2022-10-08T08:32:09.879Z,96141.22
2022-10-08T08:34:38.710Z,96146.03
2022-10-08T08:37:06.775Z,96144.81
2022-10-08T08:39:34.843Z,96150.44
2022-10-08T08:42:23.881Z,96149.19
2022-10-08T08:44:57.614Z,96144.91
2022-10-08T08:47:27.065Z,96146.31
2022-10-08T08:49:56.521Z,96152.63
2022-10-08T08:52:25.914Z,96150.38
2022-10-08T08:54:54.780Z,96147.72
2022-10-08T08:57:32.938Z,96157.00
2022-10-08T09:00:05.199Z,96149.88
2022-10-08T09:02:35.760Z,96148.66
2022-10-08T09:05:06.012Z,96155.00
2022-10-08T09:07:38.161Z,96152.25
2022-10-08T09:10:09.526Z,96157.66
2022-10-08T09:12:38.497Z,96154.00
2022-10-08T09:15:15.292Z,96157.41
2022-10-08T09:17:43.302Z,96156.38
2022-10-08T09:20:14.274Z,96162.81
2022-10-08T09:22:42.298Z,96160.75
2022-10-08T09:25:14.366Z,96163.34
2022-10-08T09:27:49.981Z,96165.28
2022-10-08T09:30:40.529Z,96160.59
2022-10-08T09:33:19.537Z,96178.19
2022-10-08T09:35:48.253Z,96178.28
2022-10-08T09:38:21.336Z,96177.81
2022-10-08T09:41:01.170Z,96183.84
2022-10-08T09:43:29.845Z,96180.63
2022-10-08T09:45:59.309Z,96185.72
2022-10-08T09:48:28.261Z,96185.44
2022-10-08T09:50:58.817Z,96182.88
2022-10-08T09:53:30.034Z,96178.28
2022-10-08T09:55:59.825Z,96187.78
2022-10-08T09:58:27.899Z,96187.34
2022-10-08T10:01:03.905Z,96179.81
2022-10-08T10:03:32.479Z,96195.63
2022-10-08T10:06:00.998Z,96186.88
2022-10-08T10:08:50.035Z,96190.00
2022-10-08T10:11:22.125Z,96186.00
2022-10-08T10:13:50.951Z,96187.09
2022-10-08T10:16:22.956Z,96197.28
2022-10-08T10:18:54.338Z,96193.34
2022-10-08T10:21:25.953Z,96191.94
2022-10-08T10:23:59.079Z,96200.03
2022-10-08T10:26:28.681Z,96191.53
2022-10-08T10:28:57.608Z,96197.44
2022-10-08T10:31:28.936Z,96204.75
2022-10-08T10:33:59.002Z,96202.66
2022-10-08T10:36:28.234Z,96204.47
2022-10-08T10:38:57.498Z,96211.09
2022-10-08T10:41:28.504Z,96207.69
2022-10-08T10:44:00.434Z,96204.25
2022-10-08T10:46:33.170Z,96209.84
2022-10-08T10:49:01.450Z,96206.47
2022-10-08T10:51:53.495Z,96206.66
2022-10-08T10:54:45.268Z,96204.66
2022-10-08T10:57:27.945Z,96207.03
2022-10-08T11:00:00.238Z,96207.84
2022-10-08T11:02:32.253Z,96197.84
2022-10-08T11:05:05.627Z,96203.13
2022-10-08T11:08:06.421Z,96209.72
2022-10-08T11:10:41.337Z,96204.09
2022-10-08T11:13:17.938Z,96209.50
2022-10-08T11:15:47.750Z,96205.44
2022-10-08T11:18:21.915Z,96207.72
2022-10-08T11:20:56.775Z,96200.19
2022-10-08T11:23:34.336Z,96203.16
2022-10-08T11:26:21.403Z,96202.16
2022-10-08T11:28:54.769Z,96205.56
2022-10-08T11:31:27.843Z,96212.16
2022-10-08T11:33:57.322Z,96205.63
2022-10-08T11:36:32.861Z,96208.47
2022-10-08T11:39:04.849Z,96203.81
2022-10-08T11:41:33.856Z,96204.50
2022-10-08T11:44:02.642Z,96210.59
2022-10-08T11:46:31.517Z,96204.81
2022-10-08T11:49:01.764Z,96198.78
2022-10-08T11:51:39.329Z,96196.00
2022-10-08T11:54:18.902Z,96201.97
2022-10-08T11:56:47.908Z,96210.38
2022-10-08T11:59:36.703Z,96206.28
2022-10-08T12:02:05.791Z,96207.31
2022-10-08T12:04:36.392Z,96210.84
2022-10-08T12:07:23.025Z,96206.25
2022-10-08T12:10:22.435Z,96207.44
2022-10-08T12:13:24.635Z,96206.38
2022-10-08T12:15:57.259Z,96214.06
2022-10-08T12:18:52.517Z,96199.81
2022-10-08T12:21:51.078Z,96201.41
2022-10-08T12:24:58.173Z,96196.59
2022-10-08T12:27:41.296Z,96187.22
2022-10-08T12:30:11.103Z,96197.34
2022-10-08T12:32:55.884Z,96192.00
2022-10-08T12:35:25.954Z,96190.72
2022-10-08T12:38:04.818Z,96190.72
2022-10-08T12:40:38.517Z,96199.72
2022-10-08T12:43:18.194Z,96196.72
2022-10-08T12:45:56.134Z,96194.41
2022-10-08T12:48:33.883Z,96198.88
2022-10-08T12:51:13.602Z,96205.25
2022-10-08T12:53:46.022Z,96203.00
2022-10-08T12:56:18.939Z,96204.94
2022-10-08T12:58:47.446Z,96198.84
2022-10-08T13:01:16.507Z,96197.63
2022-10-08T13:03:44.686Z,96200.03
2022-10-08T13:06:17.649Z,96204.34
2022-10-08T13:08:49.990Z,96200.81
2022-10-08T13:11:18.029Z,96202.78
2022-10-08T13:13:49.116Z,96209.34
2022-10-08T13:16:18.735Z,96209.47
2022-10-08T13:18:48.264Z,96204.44
2022-10-08T13:21:36.724Z,96218.88
2022-10-08T13:24:22.124Z,96211.72
2022-10-08T13:26:50.911Z,96215.53
2022-10-08T13:29:30.109Z,96216.63
2022-10-08T13:31:59.589Z,96219.94
2022-10-08T13:34:29.411Z,96222.66
2022-10-08T13:36:58.814Z,96217.41
2022-10-08T13:39:29.884Z,96217.41
2022-10-08T13:41:59.497Z,96228.47
2022-10-08T13:44:27.637Z,96231.50
2022-10-08T13:47:00.033Z,96233.28
2022-10-08T13:49:29.613Z,96236.91
2022-10-08T13:51:57.727Z,96241.78
2022-10-08T13:54:26.450Z,96259.22
2022-10-08T13:56:56.058Z,96252.69
2022-10-08T13:59:29.608Z,96261.22
2022-10-08T14:01:59.075Z,96263.19
2022-10-08T14:04:27.233Z,96263.81
2022-10-08T14:06:55.953Z,96261.19
2022-10-08T14:09:25.174Z,96258.50
2022-10-08T14:11:56.322Z,96260.66
2022-10-08T14:14:26.218Z,96261.19
2022-10-08T14:16:55.942Z,96277.09
2022-10-08T14:19:24.010Z,96265.03
2022-10-08T14:21:52.882Z,96272.59
2022-10-08T14:24:30.396Z,96276.91
2022-10-08T14:27:08.379Z,96286.84
2022-10-08T14:29:40.426Z,96292.28
2022-10-08T14:32:09.573Z,96294.19
2022-10-08T14:34:37.882Z,96289.63
2022-10-08T14:37:07.773Z,96293.13
2022-10-08T14:39:36.368Z,96293.16
2022-10-08T14:42:04.768Z,96292.06
2022-10-08T14:44:34.744Z,96286.44
2022-10-08T14:47:04.217Z,96289.41
2022-10-08T14:49:32.329Z,96291.28
2022-10-08T14:52:00.440Z,96296.66
2022-10-08T14:54:29.702Z,96300.13
2022-10-08T14:56:57.782Z,96290.19
2022-10-08T14:59:26.070Z,96299.84
2022-10-08T15:01:54.769Z,96297.47
2022-10-08T15:04:24.320Z,96306.03
2022-10-08T15:06:52.352Z,96313.53
2022-10-08T15:09:20.786Z,96313.78
2022-10-08T15:11:49.138Z,96319.09
2022-10-08T15:14:17.280Z,96316.97
2022-10-08T15:16:45.403Z,96321.25
2022-10-08T15:19:13.814Z,96331.38
2022-10-08T15:21:43.335Z,96332.16
2022-10-08T15:24:11.742Z,96329.22
2022-10-08T15:26:39.906Z,96330.84
2022-10-08T15:29:12.346Z,96324.94
2022-10-08T15:31:44.594Z,96341.81
2022-10-08T15:34:16.543Z,96338.59
2022-10-08T15:36:46.338Z,96345.00
2022-10-08T15:39:15.214Z,96341.22
2022-10-08T15:41:44.275Z,96340.41
2022-10-08T15:44:15.612Z,96342.81
2022-10-08T15:46:43.758Z,96351.38
2022-10-08T15:49:12.899Z,96347.34
2022-10-08T15:51:41.635Z,96348.94
2022-10-08T15:54:11.225Z,96356.16
2022-10-08T15:56:39.690Z,96349.47
2022-10-08T15:59:07.794Z,96354.59
2022-10-08T16:01:38.983Z,96361.00
2022-10-08T16:04:08.006Z,96366.09
2022-10-08T16:06:36.879Z,96362.63
2022-10-08T16:09:05.149Z,96366.88
2022-10-08T16:11:35.343Z,96359.66
2022-10-08T16:14:04.026Z,96368.47
2022-10-08T16:16:32.241Z,96367.38
2022-10-08T16:19:01.352Z,96363.88
2022-10-08T16:21:30.225Z,96376.22
2022-10-08T16:23:58.364Z,96376.47
2022-10-08T16:26:26.617Z,96381.84
2022-10-08T16:28:57.847Z,96393.34
2022-10-08T16:31:26.269Z,96397.59
2022-10-08T16:33:56.064Z,96397.56
2022-10-08T16:36:24.193Z,96404.75
2022-10-08T16:38:52.273Z,96406.09
2022-10-08T16:41:21.214Z,96402.84
2022-10-08T16:43:50.229Z,96407.09
2022-10-08T16:46:20.893Z,96408.38
2022-10-08T16:48:52.355Z,96417.41
2022-10-08T16:51:20.479Z,96419.75
2022-10-08T16:53:49.323Z,96418.59
2022-10-08T16:56:17.439Z,96427.59
2022-10-08T16:58:45.750Z,96433.41
2022-10-08T17:01:13.882Z,96434.69
2022-10-08T17:03:43.392Z,96437.25
2022-10-08T17:06:11.792Z,96440.34
2022-10-08T17:08:39.966Z,96442.59
2022-10-08T17:11:08.797Z,96441.72
2022-10-08T17:13:41.052Z,96438.19
2022-10-08T17:16:09.254Z,96445.03
2022-10-08T17:18:37.413Z,96458.81
2022-10-08T17:21:07.364Z,96453.91
2022-10-08T17:23:38.107Z,96466.88
2022-10-08T17:26:07.741Z,96472.91
2022-10-08T17:28:36.746Z,96472.75
2022-10-08T17:31:05.710Z,96471.00
2022-10-08T17:33:35.940Z,96475.94
2022-10-08T17:36:07.177Z,96476.91
2022-10-08T17:38:35.420Z,96479.19
2022-10-08T17:41:12.169Z,96488.16
2022-10-08T17:43:40.234Z,96482.00
2022-10-08T17:46:09.803Z,96488.56
2022-10-08T17:48:37.877Z,96492.63
2022-10-08T17:51:08.024Z,96489.59
2022-10-08T17:53:36.168Z,96502.06
2022-10-08T17:56:05.295Z,96503.50
2022-10-08T17:58:33.576Z,96514.88
2022-10-08T18:01:07.065Z,96519.34
2022-10-08T18:03:35.353Z,96520.53
2022-10-08T18:06:03.736Z,96517.75
2022-10-08T18:08:33.244Z,96515.03
2022-10-08T18:11:02.876Z,96519.19
2022-10-08T18:13:30.949Z,96527.34
2022-10-08T18:16:03.221Z,96537.19
2022-10-08T18:18:31.461Z,96544.38
2022-10-08T18:21:00.442Z,96542.97
2022-10-08T18:23:29.294Z,96538.91
2022-10-08T18:26:07.676Z,96531.28
2022-10-08T18:28:36.033Z,96548.31
2022-10-08T18:31:13.451Z,96542.84
2022-10-08T18:33:43.791Z,96539.72
2022-10-08T18:36:12.759Z,96537.16
2022-10-08T18:38:40.977Z,96551.41
2022-10-08T18:41:17.455Z,96550.66
2022-10-08T18:43:46.051Z,96559.00
2022-10-08T18:46:14.459Z,96556.91
2022-10-08T18:48:42.710Z,96565.00
2022-10-08T18:51:11.664Z,96565.81
2022-10-08T18:53:40.860Z,96568.16
2022-10-08T18:56:09.754Z,96575.03
2022-10-08T18:58:39.241Z,96588.34
2022-10-08T19:01:07.623Z,96583.47
2022-10-08T19:03:36.032Z,96593.72
2022-10-08T19:06:07.372Z,96589.81
2022-10-08T19:08:35.547Z,96594.47
2022-10-08T19:11:10.365Z,96587.84
2022-10-08T19:13:40.007Z,96598.41
2022-10-08T19:16:13.354Z,96594.81
2022-10-08T19:18:43.075Z,96590.22
2022-10-08T19:21:11.436Z,96600.75
2022-10-08T19:23:39.576Z,96604.69
2022-10-08T19:26:08.046Z,96609.34
2022-10-08T19:28:37.418Z,96610.50
2022-10-08T19:31:14.718Z,96613.03
2022-10-08T19:33:43.030Z,96617.47
2022-10-08T19:36:11.351Z,96617.47
2022-10-08T19:38:39.474Z,96628.13
2022-10-08T19:41:08.153Z,96626.63
2022-10-08T19:43:36.547Z,96628.91
2022-10-08T19:46:04.887Z,96626.84
2022-10-08T19:48:34.758Z,96630.44
2022-10-08T19:51:05.116Z,96630.66
2022-10-08T19:53:33.312Z,96634.13
2022-10-08T19:56:01.675Z,96639.31
2022-10-08T19:58:30.070Z,96646.84
2022-10-08T20:01:01.417Z,96655.53
2022-10-08T20:03:29.624Z,96656.78
2022-10-08T20:06:02.256Z,96655.38
2022-10-08T20:08:30.527Z,96661.25
2022-10-08T20:10:59.478Z,96654.31
2022-10-08T20:13:27.873Z,96656.84
2022-10-08T20:15:56.063Z,96657.03
2022-10-08T20:18:24.219Z,96659.09
2022-10-08T20:21:02.777Z,96664.66
2022-10-08T20:23:30.978Z,96662.56
2022-10-08T20:26:09.624Z,96668.13
2022-10-08T20:28:37.768Z,96662.09
2022-10-08T20:31:10.734Z,96671.56
2022-10-08T20:33:40.698Z,96677.69
2022-10-08T20:36:10.457Z,96681.03
2022-10-08T20:38:38.659Z,96684.81
2022-10-08T20:41:07.314Z,96684.00
2022-10-08T20:43:36.063Z,96687.69
2022-10-08T20:46:04.543Z,96684.66
2022-10-08T20:48:33.273Z,96689.63
2022-10-08T20:51:04.840Z,96690.06
2022-10-08T20:53:34.597Z,96692.81
2022-10-08T20:56:05.769Z,96687.13
2022-10-08T20:58:33.904Z,96686.38
2022-10-08T21:01:06.231Z,96691.31
2022-10-08T21:03:36.154Z,96699.16
2022-10-08T21:06:04.560Z,96699.16
2022-10-08T21:08:36.567Z,96700.31
2022-10-08T21:11:04.866Z,96700.13
2022-10-08T21:13:33.077Z,96702.78
2022-10-08T21:16:02.366Z,96709.59
2022-10-08T21:18:30.662Z,96706.53
2022-10-08T21:21:02.578Z,96701.88
2022-10-08T21:23:30.782Z,96715.63
2022-10-08T21:26:08.784Z,96713.41
2022-10-08T21:28:37.100Z,96712.44
2022-10-08T21:31:05.522Z,96717.59
2022-10-08T21:33:36.029Z,96714.13
2022-10-08T21:36:04.833Z,96712.34
2022-10-08T21:38:32.928Z,96720.31
2022-10-08T21:41:02.272Z,96721.56
2022-10-08T21:43:32.182Z,96708.50
2022-10-08T21:46:01.611Z,96723.00
2022-10-08T21:48:30.606Z,96728.13
2022-10-08T21:50:59.633Z,96728.94
2022-10-08T21:53:27.800Z,96718.31
2022-10-08T21:55:56.886Z,96724.66
2022-10-08T21:58:25.596Z,96726.94
2022-10-08T22:00:55.218Z,96724.31
2022-10-08T22:03:23.654Z,96733.34
2022-10-08T22:05:52.918Z,96734.38
2022-10-08T22:08:21.073Z,96731.34
2022-10-08T22:10:49.148Z,96732.75
2022-10-08T22:13:17.349Z,96736.88
2022-10-08T22:15:54.813Z,96733.63
2022-10-08T22:18:22.982Z,96738.13
2022-10-08T22:20:51.302Z,96735.91
2022-10-08T22:23:19.526Z,96745.94
2022-10-08T22:25:53.336Z,96747.38
2022-10-08T22:28:21.719Z,96742.91
2022-10-08T22:30:50.310Z,96756.59
2022-10-08T22:33:20.030Z,96745.59
2022-10-08T22:35:48.179Z,96751.34
2022-10-08T22:38:16.430Z,96757.66
2022-10-08T22:40:45.113Z,96756.09
2022-10-08T22:43:16.455Z,96755.50
2022-10-08T22:45:45.300Z,96762.63
2022-10-08T22:48:13.383Z,96764.47
2022-10-08T22:50:42.875Z,96758.19
2022-10-08T22:53:10.986Z,96763.09
2022-10-08T22:55:41.158Z,96765.97
2022-10-08T22:58:09.598Z,96769.88
2022-10-08T23:00:37.676Z,96759.88
2022-10-08T23:03:05.901Z,96761.72
2022-10-08T23:05:34.075Z,96765.63
2022-10-08T23:08:03.794Z,96769.13
2022-10-08T23:10:31.938Z,96765.25
2022-10-08T23:13:00.297Z,96764.28
2022-10-08T23:15:28.373Z,96768.97
2022-10-08T23:17:56.481Z,96770.00
2022-10-08T23:20:24.644Z,96767.75
2022-10-08T23:22:52.671Z,96769.38
2022-10-08T23:25:22.436Z,96770.81
2022-10-08T23:27:50.493Z,96772.88
2022-10-08T23:30:41.495Z,96768.00
2022-10-08T23:33:06.742Z,96768.19
2022-10-08T23:35:34.823Z,96765.75
2022-10-08T23:38:02.818Z,96769.00
2022-10-08T23:40:32.613Z,96768.41
2022-10-08T23:43:00.697Z,96768.81
2022-10-08T23:45:28.720Z,96777.00
2022-10-08T23:47:56.755Z,96773.75
2022-10-08T23:50:24.802Z,96770.50
2022-10-08T23:52:53.122Z,96772.13
2022-10-08T23:55:21.165Z,96776.44
2022-10-08T23:57:50.549Z,96775.22
